createdAt,value
2022-07-26T00:01:44.391Z,22.55
2022-07-26T00:05:13.221Z,22.53
2022-07-26T00:08:40.634Z,22.53
2022-07-26T00:12:09.113Z,22.52
2022-07-26T00:15:37.087Z,22.52
2022-07-26T00:19:05.463Z,22.51
2022-07-26T00:22:36.494Z,22.49
2022-07-26T00:26:03.928Z,22.45
2022-07-26T00:29:31.180Z,22.44
2022-07-26T00:33:00.793Z,22.44
2022-07-26T00:36:29.490Z,22.44
2022-07-26T00:39:57.649Z,22.42
2022-07-26T00:43:26.801Z,22.40
2022-07-26T00:46:54.194Z,22.37
2022-07-26T00:50:23.009Z,22.35
2022-07-26T00:53:51.324Z,22.32
2022-07-26T00:57:20.312Z,22.30
2022-07-26T01:00:50.525Z,22.28
2022-07-26T01:04:18.237Z,22.26
2022-07-26T01:07:45.856Z,22.23
2022-07-26T01:11:12.941Z,22.22
2022-07-26T01:14:39.940Z,22.21
2022-07-26T01:18:07.314Z,22.18
2022-07-26T01:21:34.964Z,22.15
2022-07-26T01:25:02.022Z,22.14
2022-07-26T01:28:30.339Z,22.12
2022-07-26T01:31:57.381Z,22.11
2022-07-26T01:35:25.059Z,22.09
2022-07-26T01:38:56.651Z,22.08
2022-07-26T01:42:24.278Z,22.08
2022-07-26T01:45:55.071Z,22.07
2022-07-26T01:49:30.403Z,22.06
2022-07-26T01:52:58.318Z,22.04
2022-07-26T01:56:25.509Z,22.01
2022-07-26T01:59:52.693Z,21.99
2022-07-26T02:03:20.191Z,21.95
2022-07-26T02:06:47.317Z,21.92
2022-07-26T02:10:15.819Z,21.91
2022-07-26T02:13:49.954Z,21.89
2022-07-26T02:17:20.762Z,21.88
2022-07-26T02:20:48.300Z,21.87
2022-07-26T02:24:17.921Z,21.84
2022-07-26T02:27:45.326Z,21.82
2022-07-26T02:31:15.574Z,21.80
2022-07-26T02:34:43.951Z,21.77
2022-07-26T02:38:14.140Z,21.74
2022-07-26T02:41:41.984Z,21.72
2022-07-26T02:45:12.926Z,21.71
2022-07-26T02:48:40.466Z,21.68
2022-07-26T02:52:08.869Z,21.66
2022-07-26T02:55:36.083Z,21.63
2022-07-26T02:59:03.390Z,21.62
2022-07-26T03:02:32.526Z,21.60
2022-07-26T03:06:00.084Z,21.58
2022-07-26T03:09:27.537Z,21.57
2022-07-26T03:12:55.444Z,21.56
2022-07-26T03:16:26.115Z,21.54
2022-07-26T03:19:57.011Z,21.53
2022-07-26T03:23:24.313Z,21.49
2022-07-26T03:26:51.891Z,21.48
2022-07-26T03:30:24.513Z,21.48
2022-07-26T03:33:52.699Z,21.48
2022-07-26T03:37:20.119Z,21.46
2022-07-26T03:40:47.910Z,21.45
2022-07-26T03:44:15.215Z,21.43
2022-07-26T03:47:43.394Z,21.42
2022-07-26T03:51:12.282Z,21.40
2022-07-26T03:54:39.732Z,21.39
2022-07-26T03:58:06.836Z,21.36
2022-07-26T04:01:35.303Z,21.38
2022-07-26T04:05:02.662Z,21.41
2022-07-26T04:08:30.389Z,21.45
2022-07-26T04:11:57.571Z,21.49
2022-07-26T04:15:25.222Z,21.56
2022-07-26T04:18:52.542Z,21.60
2022-07-26T04:22:19.685Z,21.66
2022-07-26T04:25:46.847Z,21.72
2022-07-26T04:29:15.608Z,21.79
2022-07-26T04:32:42.383Z,21.82
2022-07-26T04:36:10.436Z,21.83
2022-07-26T04:39:37.693Z,21.80
2022-07-26T04:43:05.073Z,21.74
2022-07-26T04:46:35.765Z,21.72
2022-07-26T04:50:02.447Z,21.69
2022-07-26T04:53:29.701Z,21.68
2022-07-26T04:56:56.860Z,21.70
2022-07-26T05:00:27.932Z,21.73
2022-07-26T05:03:55.075Z,21.75
2022-07-26T05:07:24.690Z,21.76
2022-07-26T05:10:55.563Z,21.77
2022-07-26T05:14:24.540Z,21.78
2022-07-26T05:17:51.939Z,21.83
2022-07-26T05:21:20.720Z,21.87
2022-07-26T05:24:49.436Z,21.88
2022-07-26T05:28:19.674Z,21.91
2022-07-26T05:31:50.915Z,21.97
2022-07-26T05:35:18.951Z,22.03
2022-07-26T05:38:47.664Z,22.05
2022-07-26T05:42:15.783Z,22.11
2022-07-26T05:45:44.236Z,22.16
2022-07-26T05:49:17.266Z,22.20
2022-07-26T05:52:47.838Z,22.22
2022-07-26T05:56:18.791Z,22.22
2022-07-26T05:59:49.238Z,22.21
2022-07-26T06:03:26.631Z,22.21
2022-07-26T06:07:00.100Z,22.19
2022-07-26T06:10:26.526Z,22.15
2022-07-26T06:13:56.677Z,22.10
2022-07-26T06:17:27.662Z,22.11
2022-07-26T06:20:56.634Z,22.13
2022-07-26T06:24:33.469Z,22.16
2022-07-26T06:28:05.606Z,22.19
2022-07-26T06:31:33.231Z,22.18
2022-07-26T06:35:01.184Z,22.15
2022-07-26T06:38:31.421Z,22.12
2022-07-26T06:41:59.187Z,22.04
2022-07-26T06:45:30.741Z,21.95
2022-07-26T06:49:02.421Z,21.82
2022-07-26T06:52:33.356Z,21.65
2022-07-26T06:56:01.601Z,21.53
2022-07-26T06:59:32.912Z,21.47
2022-07-26T07:03:00.516Z,21.36
2022-07-26T07:06:28.936Z,21.24
2022-07-26T07:09:57.339Z,21.14
2022-07-26T07:13:26.517Z,21.07
2022-07-26T07:16:53.772Z,20.95
2022-07-26T07:20:23.754Z,20.85
2022-07-26T07:24:06.639Z,20.84
2022-07-26T07:27:34.828Z,20.85
2022-07-26T07:31:02.481Z,20.84
2022-07-26T07:34:31.172Z,20.88
2022-07-26T07:37:58.222Z,20.92
2022-07-26T07:41:26.298Z,20.97
2022-07-26T07:44:53.488Z,20.99
2022-07-26T07:48:20.649Z,21.03
2022-07-26T07:51:49.335Z,21.12
2022-07-26T07:55:36.589Z,21.21
2022-07-26T07:59:05.150Z,21.30
2022-07-26T08:02:33.891Z,21.34
2022-07-26T08:06:01.700Z,21.40
2022-07-26T08:09:28.857Z,21.43
2022-07-26T08:12:56.420Z,21.45
2022-07-26T08:16:23.560Z,21.45
2022-07-26T08:19:50.910Z,21.49
2022-07-26T08:23:18.210Z,21.53
2022-07-26T08:26:45.379Z,21.60
2022-07-26T08:30:14.404Z,21.70
2022-07-26T08:33:46.476Z,21.77
2022-07-26T08:37:17.563Z,21.88
2022-07-26T08:40:45.710Z,22.00
2022-07-26T08:44:16.632Z,22.12
2022-07-26T08:48:07.549Z,22.22
2022-07-26T08:51:32.543Z,22.29
2022-07-26T08:55:00.080Z,22.38
2022-07-26T08:58:27.414Z,22.51
2022-07-26T09:01:59.476Z,22.58
2022-07-26T09:05:31.580Z,22.62
2022-07-26T09:09:13.398Z,22.63
2022-07-26T09:12:42.143Z,22.62
2022-07-26T09:16:14.498Z,22.63
2022-07-26T09:19:42.449Z,22.65
2022-07-26T09:23:12.122Z,22.68
2022-07-26T09:26:40.118Z,22.74
2022-07-26T09:30:12.547Z,22.83
2022-07-26T09:33:50.282Z,22.94
2022-07-26T09:37:18.351Z,23.04
2022-07-26T09:40:51.034Z,23.05
2022-07-26T09:44:27.953Z,23.08
2022-07-26T09:47:55.987Z,23.10
2022-07-26T09:51:38.391Z,23.09
2022-07-26T09:55:10.046Z,23.07
2022-07-26T09:58:38.827Z,23.07
2022-07-26T10:02:06.947Z,23.01
2022-07-26T10:05:35.571Z,23.02
2022-07-26T10:09:04.525Z,23.07
2022-07-26T10:12:35.622Z,23.14
2022-07-26T10:16:03.102Z,23.31
2022-07-26T10:19:45.436Z,23.51
2022-07-26T10:23:36.612Z,23.70
2022-07-26T10:27:04.800Z,23.96
2022-07-26T10:30:35.495Z,24.06
2022-07-26T10:34:06.388Z,24.07
2022-07-26T10:37:33.948Z,23.98
2022-07-26T10:41:02.472Z,23.96
2022-07-26T10:44:31.679Z,24.03
2022-07-26T10:48:17.512Z,24.19
2022-07-26T10:51:45.024Z,24.41
2022-07-26T10:55:13.272Z,24.59
2022-07-26T10:58:46.643Z,24.80
2022-07-26T11:02:23.532Z,24.94
2022-07-26T11:05:51.048Z,25.00
2022-07-26T11:09:21.180Z,25.10
2022-07-26T11:12:48.907Z,25.19
2022-07-26T11:16:23.710Z,25.21
2022-07-26T11:19:53.567Z,25.27
2022-07-26T11:23:29.850Z,25.39
2022-07-26T11:26:56.950Z,25.37
2022-07-26T11:30:25.087Z,25.34
2022-07-26T11:33:55.117Z,25.25
2022-07-26T11:37:22.266Z,25.14
2022-07-26T11:40:51.698Z,25.04
2022-07-26T11:44:23.473Z,25.03
2022-07-26T11:47:59.042Z,25.09
2022-07-26T11:51:27.932Z,25.10
2022-07-26T11:54:57.303Z,25.09
2022-07-26T11:58:24.454Z,25.09
2022-07-26T12:01:51.935Z,25.10
2022-07-26T12:05:22.608Z,25.19
2022-07-26T12:08:56.091Z,25.28
2022-07-26T12:12:28.310Z,25.26
2022-07-26T12:15:56.640Z,25.22
2022-07-26T12:19:34.257Z,25.18
2022-07-26T12:23:06.377Z,25.18
2022-07-26T12:26:34.863Z,25.15
2022-07-26T12:30:20.001Z,25.08
2022-07-26T12:33:53.009Z,25.02
2022-07-26T12:37:28.261Z,24.96
2022-07-26T12:41:01.098Z,25.00
2022-07-26T12:44:27.882Z,25.14
2022-07-26T12:47:57.684Z,25.29
2022-07-26T12:51:27.090Z,25.41
2022-07-26T12:54:55.366Z,25.50
2022-07-26T12:58:22.635Z,25.68
2022-07-26T13:01:50.893Z,25.88
2022-07-26T13:05:18.575Z,25.90
2022-07-26T13:08:45.686Z,25.83
2022-07-26T13:12:14.353Z,25.75
2022-07-26T13:15:41.215Z,25.67
2022-07-26T13:19:08.680Z,25.49
2022-07-26T13:22:36.181Z,25.38
2022-07-26T13:26:03.468Z,25.26
2022-07-26T13:29:31.958Z,25.06
2022-07-26T13:33:00.123Z,24.88
2022-07-26T13:36:27.291Z,24.76
2022-07-26T13:39:54.689Z,24.74
2022-07-26T13:43:23.820Z,24.81
2022-07-26T13:47:09.652Z,25.01
2022-07-26T13:50:43.162Z,25.27
2022-07-26T13:54:18.071Z,25.49
2022-07-26T13:57:55.882Z,25.63
2022-07-26T14:01:43.049Z,25.72
2022-07-26T14:05:14.770Z,25.86
2022-07-26T14:08:42.319Z,26.03
2022-07-26T14:12:16.706Z,26.44
2022-07-26T14:15:44.340Z,26.86
2022-07-26T14:19:15.971Z,27.20
2022-07-26T14:22:44.036Z,27.47
2022-07-26T14:26:12.519Z,27.70
2022-07-26T14:29:46.648Z,27.78
2022-07-26T14:33:17.156Z,27.73
2022-07-26T14:36:45.924Z,27.63
2022-07-26T14:40:17.246Z,27.50
2022-07-26T14:43:47.239Z,27.39
2022-07-26T14:47:17.285Z,27.28
2022-07-26T14:51:08.556Z,27.24
2022-07-26T14:54:44.942Z,27.39
2022-07-26T14:58:16.697Z,27.45
2022-07-26T15:01:50.663Z,27.43
2022-07-26T15:05:23.964Z,27.35
2022-07-26T15:09:02.571Z,27.44
2022-07-26T15:12:32.593Z,27.70
2022-07-26T15:16:02.306Z,27.96
2022-07-26T15:19:41.417Z,28.09
2022-07-26T15:23:15.706Z,28.22
2022-07-26T15:26:45.768Z,28.20
2022-07-26T15:30:15.625Z,28.21
2022-07-26T15:33:49.435Z,28.05
2022-07-26T15:37:19.468Z,27.89
2022-07-26T15:40:48.497Z,27.71
2022-07-26T15:44:25.527Z,27.62
2022-07-26T15:48:10.568Z,27.49
2022-07-26T15:51:44.473Z,27.53
2022-07-26T15:55:16.571Z,27.55
2022-07-26T15:58:45.779Z,27.55
2022-07-26T16:02:16.395Z,27.48
2022-07-26T16:05:48.148Z,27.43
2022-07-26T16:09:20.324Z,27.37
2022-07-26T16:12:49.215Z,27.37
2022-07-26T16:16:23.331Z,27.37
2022-07-26T16:19:57.717Z,27.31
2022-07-26T16:23:29.846Z,27.19
2022-07-26T16:27:02.166Z,27.06
2022-07-26T16:30:32.733Z,26.95
2022-07-26T16:34:07.601Z,26.79
2022-07-26T16:37:41.998Z,26.63
2022-07-26T16:41:22.319Z,26.47
2022-07-26T16:44:58.821Z,26.30
2022-07-26T16:48:31.604Z,26.11
2022-07-26T16:52:00.069Z,25.98
2022-07-26T16:55:28.221Z,25.87
2022-07-26T16:58:57.420Z,25.76
2022-07-26T17:02:25.697Z,25.67
2022-07-26T17:06:06.448Z,25.56
2022-07-26T17:09:54.731Z,25.45
2022-07-26T17:13:26.311Z,25.32
2022-07-26T17:16:55.405Z,25.18
2022-07-26T17:20:23.176Z,25.03
2022-07-26T17:23:51.260Z,24.87
2022-07-26T17:27:33.168Z,24.73
2022-07-26T17:31:02.792Z,24.55
2022-07-26T17:34:32.587Z,24.35
2022-07-26T17:38:00.387Z,24.23
2022-07-26T17:41:32.824Z,24.08
2022-07-26T17:45:01.538Z,23.94
2022-07-26T17:48:29.886Z,23.84
2022-07-26T17:51:59.039Z,23.72
2022-07-26T17:55:30.887Z,23.61
2022-07-26T17:59:01.630Z,23.49
2022-07-26T18:02:33.905Z,23.40
2022-07-26T18:06:02.058Z,23.29
2022-07-26T18:09:30.191Z,23.19
2022-07-26T18:12:58.340Z,23.09
2022-07-26T18:16:25.641Z,22.99
2022-07-26T18:19:54.212Z,22.87
2022-07-26T18:23:23.106Z,22.76
2022-07-26T18:26:53.837Z,22.67
2022-07-26T18:30:22.018Z,22.55
2022-07-26T18:33:57.499Z,22.45
2022-07-26T18:37:25.935Z,22.37
2022-07-26T18:40:58.149Z,22.29
2022-07-26T18:44:28.263Z,22.17
2022-07-26T18:47:56.659Z,22.09
2022-07-26T18:51:28.148Z,22.03
2022-07-26T18:54:55.777Z,21.97
2022-07-26T18:58:27.476Z,21.93
2022-07-26T19:01:58.315Z,21.84
2022-07-26T19:05:27.001Z,21.71
2022-07-26T19:09:03.485Z,21.66
2022-07-26T19:12:33.406Z,21.63
2022-07-26T19:16:04.378Z,21.57
2022-07-26T19:19:34.983Z,21.51
2022-07-26T19:23:03.683Z,21.47
2022-07-26T19:26:31.998Z,21.45
2022-07-26T19:30:04.025Z,21.41
2022-07-26T19:33:33.597Z,21.38
2022-07-26T19:37:08.173Z,21.32
2022-07-26T19:40:43.672Z,21.26
2022-07-26T19:44:13.859Z,21.23
2022-07-26T19:47:45.245Z,21.20
2022-07-26T19:51:13.505Z,21.15
2022-07-26T19:54:44.291Z,21.08
2022-07-26T19:58:11.825Z,21.00
2022-07-26T20:01:55.354Z,20.97
2022-07-26T20:05:34.126Z,20.94
2022-07-26T20:09:04.553Z,20.87
2022-07-26T20:12:34.013Z,20.77
2022-07-26T20:16:05.080Z,20.67
2022-07-26T20:19:38.342Z,20.61
2022-07-26T20:23:14.805Z,20.57
2022-07-26T20:26:46.350Z,20.53
2022-07-26T20:30:15.743Z,20.51
2022-07-26T20:33:44.029Z,20.47
2022-07-26T20:37:13.420Z,20.43
2022-07-26T20:40:41.437Z,20.40
2022-07-26T20:44:13.748Z,20.32
2022-07-26T20:47:45.289Z,20.21
2022-07-26T20:51:14.418Z,20.11
2022-07-26T20:54:51.378Z,20.04
2022-07-26T20:58:23.422Z,19.94
2022-07-26T21:01:51.428Z,19.87
2022-07-26T21:05:22.150Z,19.82
2022-07-26T21:08:52.705Z,19.75
2022-07-26T21:12:22.484Z,19.67
2022-07-26T21:16:04.260Z,19.59
2022-07-26T21:19:38.129Z,19.52
2022-07-26T21:23:17.284Z,19.48
2022-07-26T21:26:50.341Z,19.42
2022-07-26T21:30:24.934Z,19.35
2022-07-26T21:33:58.751Z,19.27
2022-07-26T21:37:34.586Z,19.20
2022-07-26T21:41:05.914Z,19.13
2022-07-26T21:44:33.862Z,19.07
2022-07-26T21:48:02.889Z,19.02
2022-07-26T21:51:43.733Z,18.97
2022-07-26T21:55:20.715Z,18.88
2022-07-26T21:58:51.897Z,18.81
2022-07-26T22:02:24.208Z,18.76
2022-07-26T22:05:54.805Z,18.71
2022-07-26T22:09:25.118Z,18.65
2022-07-26T22:12:58.031Z,18.56
2022-07-26T22:16:26.014Z,18.50
2022-07-26T22:19:53.274Z,18.43
2022-07-26T22:23:30.904Z,18.35
2022-07-26T22:27:04.695Z,18.25
2022-07-26T22:30:41.135Z,18.15
2022-07-26T22:34:18.025Z,18.05
2022-07-26T22:37:49.826Z,17.92
2022-07-26T22:41:17.074Z,17.80
2022-07-26T22:44:45.140Z,17.67
2022-07-26T22:48:15.629Z,17.55
2022-07-26T22:51:46.476Z,17.47
2022-07-26T22:55:15.132Z,17.38
2022-07-26T22:58:43.284Z,17.31
2022-07-26T23:02:11.271Z,17.25
2022-07-26T23:05:46.509Z,17.20
2022-07-26T23:09:15.345Z,17.14
2022-07-26T23:12:43.387Z,17.09
2022-07-26T23:16:13.265Z,17.05
2022-07-26T23:19:40.608Z,17.04
2022-07-26T23:23:08.149Z,17.01
2022-07-26T23:26:35.632Z,16.98
2022-07-26T23:30:02.560Z,16.90
2022-07-26T23:33:51.301Z,16.88
2022-07-26T23:37:17.629Z,16.81
2022-07-26T23:40:45.172Z,16.73
2022-07-26T23:44:12.534Z,16.66
2022-07-26T23:47:39.332Z,16.59
2022-07-26T23:51:06.469Z,16.51
2022-07-26T23:54:33.742Z,16.44
2022-07-26T23:58:01.310Z,16.35
